sensor_id;sensor_type;location;lat;lon;timestamp;temperature;humidity
13591;DHT22;6866;50.778;7.206;2023-08-30T00:00:05;16.60;99.90
13591;DHT22;6866;50.778;7.206;2023-08-30T00:02:30;16.50;99.90
13591;DHT22;6866;50.778;7.206;2023-08-30T00:04:59;16.50;99.90
13591;DHT22;6866;50.778;7.206;2023-08-30T00:07:26;16.30;99.90
13591;DHT22;6866;50.778;7.206;2023-08-30T00:09:52;16.30;99.90
13591;DHT22;6866;50.778;7.206;2023-08-30T00:12:17;16.10;99.90
13591;DHT22;6866;50.778;7.206;2023-08-30T00:14:43;16.10;99.90
13591;DHT22;6866;50.778;7.206;2023-08-30T00:17:08;16.10;99.90
13591;DHT22;6866;50.778;7.206;2023-08-30T00:19:34;16.20;99.90
13591;DHT22;6866;50.778;7.206;2023-08-30T00:22:00;16.20;99.90
13591;DHT22;6866;50.778;7.206;2023-08-30T00:24:26;16.20;99.90
13591;DHT22;6866;50.778;7.206;2023-08-30T00:26:51;16.20;99.90
13591;DHT22;6866;50.778;7.206;2023-08-30T00:29:17;16.20;99.90
13591;DHT22;6866;50.778;7.206;2023-08-30T00:31:42;16.10;99.90
13591;DHT22;6866;50.778;7.206;2023-08-30T00:34:08;16.10;99.90
13591;DHT22;6866;50.778;7.206;2023-08-30T00:36:33;16.10;99.90
13591;DHT22;6866;50.778;7.206;2023-08-30T00:38:59;16.00;99.90
13591;DHT22;6866;50.778;7.206;2023-08-30T00:41:25;16.00;99.90
13591;DHT22;6866;50.778;7.206;2023-08-30T00:43:50;16.00;99.90
13591;DHT22;6866;50.778;7.206;2023-08-30T00:46:16;16.00;99.90
13591;DHT22;6866;50.778;7.206;2023-08-30T00:51:09;16.00;99.90
13591;DHT22;6866;50.778;7.206;2023-08-30T00:53:35;15.90;99.90
13591;DHT22;6866;50.778;7.206;2023-08-30T00:56:00;15.70;99.90
13591;DHT22;6866;50.778;7.206;2023-08-30T00:58:26;15.80;99.90
13591;DHT22;6866;50.778;7.206;2023-08-30T01:03:27;15.80;99.90
13591;DHT22;6866;50.778;7.206;2023-08-30T01:05:53;15.60;99.90
13591;DHT22;6866;50.778;7.206;2023-08-30T01:08:18;15.60;99.90
13591;DHT22;6866;50.778;7.206;2023-08-30T01:13:42;15.60;99.90
13591;DHT22;6866;50.778;7.206;2023-08-30T01:16:10;15.60;99.90
13591;DHT22;6866;50.778;7.206;2023-08-30T01:18:37;15.70;99.90
13591;DHT22;6866;50.778;7.206;2023-08-30T01:21:04;15.50;99.90
13591;DHT22;6866;50.778;7.206;2023-08-30T01:23:47;15.40;99.90
13591;DHT22;6866;50.778;7.206;2023-08-30T01:26:29;15.50;99.90
13591;DHT22;6866;50.778;7.206;2023-08-30T01:28:56;15.50;99.90
13591;DHT22;6866;50.778;7.206;2023-08-30T01:31:25;15.50;99.90
13591;DHT22;6866;50.778;7.206;2023-08-30T01:33:52;15.40;99.90
13591;DHT22;6866;50.778;7.206;2023-08-30T01:36:18;15.40;99.90
13591;DHT22;6866;50.778;7.206;2023-08-30T01:38:44;15.50;99.90
13591;DHT22;6866;50.778;7.206;2023-08-30T01:41:11;15.60;99.90
13591;DHT22;6866;50.778;7.206;2023-08-30T01:43:37;15.50;99.90
13591;DHT22;6866;50.778;7.206;2023-08-30T01:46:03;15.40;99.90
13591;DHT22;6866;50.778;7.206;2023-08-30T01:48:31;15.30;99.90
13591;DHT22;6866;50.778;7.206;2023-08-30T01:50:57;15.30;99.90
13591;DHT22;6866;50.778;7.206;2023-08-30T01:53:27;15.30;99.90
13591;DHT22;6866;50.778;7.206;2023-08-30T01:55:53;15.40;99.90
13591;DHT22;6866;50.778;7.206;2023-08-30T01:58:19;15.30;99.90
13591;DHT22;6866;50.778;7.206;2023-08-30T02:00:45;15.40;99.90
13591;DHT22;6866;50.778;7.206;2023-08-30T02:03:12;15.40;99.90
13591;DHT22;6866;50.778;7.206;2023-08-30T02:05:57;15.40;99.90
13591;DHT22;6866;50.778;7.206;2023-08-30T02:08:26;15.40;99.90
13591;DHT22;6866;50.778;7.206;2023-08-30T02:10:56;15.30;99.90
13591;DHT22;6866;50.778;7.206;2023-08-30T02:13:30;15.30;99.90
13591;DHT22;6866;50.778;7.206;2023-08-30T02:15:56;15.20;99.90
13591;DHT22;6866;50.778;7.206;2023-08-30T02:18:24;15.00;99.90
13591;DHT22;6866;50.778;7.206;2023-08-30T02:20:50;15.00;99.90
13591;DHT22;6866;50.778;7.206;2023-08-30T02:23:16;15.10;99.90
13591;DHT22;6866;50.778;7.206;2023-08-30T02:25:41;15.20;99.90
13591;DHT22;6866;50.778;7.206;2023-08-30T02:28:07;15.20;99.90
13591;DHT22;6866;50.778;7.206;2023-08-30T02:30:32;14.90;99.90
13591;DHT22;6866;50.778;7.206;2023-08-30T02:32:58;15.00;99.90
13591;DHT22;6866;50.778;7.206;2023-08-30T02:35:23;15.20;99.90
13591;DHT22;6866;50.778;7.206;2023-08-30T02:37:49;15.20;99.90
13591;DHT22;6866;50.778;7.206;2023-08-30T02:40:15;15.20;99.90
13591;DHT22;6866;50.778;7.206;2023-08-30T02:42:40;15.20;99.90
13591;DHT22;6866;50.778;7.206;2023-08-30T02:45:06;15.30;99.90
13591;DHT22;6866;50.778;7.206;2023-08-30T02:47:32;15.20;99.90
13591;DHT22;6866;50.778;7.206;2023-08-30T02:49:57;15.20;99.90
13591;DHT22;6866;50.778;7.206;2023-08-30T02:52:23;15.20;99.90
13591;DHT22;6866;50.778;7.206;2023-08-30T02:54:48;15.30;99.90
13591;DHT22;6866;50.778;7.206;2023-08-30T02:57:14;15.40;99.90
13591;DHT22;6866;50.778;7.206;2023-08-30T02:59:40;15.30;99.90
13591;DHT22;6866;50.778;7.206;2023-08-30T03:02:05;15.30;99.90
13591;DHT22;6866;50.778;7.206;2023-08-30T03:04:31;15.30;99.90
13591;DHT22;6866;50.778;7.206;2023-08-30T03:06:56;15.40;99.90
13591;DHT22;6866;50.778;7.206;2023-08-30T03:09:22;15.50;99.90
13591;DHT22;6866;50.778;7.206;2023-08-30T03:11:47;15.60;99.90
13591;DHT22;6866;50.778;7.206;2023-08-30T03:14:13;15.60;99.90
13591;DHT22;6866;50.778;7.206;2023-08-30T03:16:39;15.60;99.90
13591;DHT22;6866;50.778;7.206;2023-08-30T03:19:04;15.60;99.90
13591;DHT22;6866;50.778;7.206;2023-08-30T03:21:30;15.60;99.90
13591;DHT22;6866;50.778;7.206;2023-08-30T03:23:55;15.50;99.90
13591;DHT22;6866;50.778;7.206;2023-08-30T03:26:21;15.50;99.90
13591;DHT22;6866;50.778;7.206;2023-08-30T03:28:46;15.50;99.90
13591;DHT22;6866;50.778;7.206;2023-08-30T03:31:17;15.40;99.90
13591;DHT22;6866;50.778;7.206;2023-08-30T03:33:43;15.50;99.90
13591;DHT22;6866;50.778;7.206;2023-08-30T03:36:15;15.50;99.90
13591;DHT22;6866;50.778;7.206;2023-08-30T03:38:41;15.40;99.90
13591;DHT22;6866;50.778;7.206;2023-08-30T03:41:07;15.40;99.90
13591;DHT22;6866;50.778;7.206;2023-08-30T03:43:33;15.50;99.90
13591;DHT22;6866;50.778;7.206;2023-08-30T03:46:02;15.50;99.90
13591;DHT22;6866;50.778;7.206;2023-08-30T03:48:29;15.40;99.90
13591;DHT22;6866;50.778;7.206;2023-08-30T03:50:55;15.40;99.90
13591;DHT22;6866;50.778;7.206;2023-08-30T03:53:21;15.40;99.90
13591;DHT22;6866;50.778;7.206;2023-08-30T03:55:47;15.40;99.90
13591;DHT22;6866;50.778;7.206;2023-08-30T03:58:12;15.30;99.90
13591;DHT22;6866;50.778;7.206;2023-08-30T04:00:41;15.10;99.90
13591;DHT22;6866;50.778;7.206;2023-08-30T04:03:08;15.10;99.90
13591;DHT22;6866;50.778;7.206;2023-08-30T04:05:38;15.10;99.90
13591;DHT22;6866;50.778;7.206;2023-08-30T04:08:05;14.90;99.90
13591;DHT22;6866;50.778;7.206;2023-08-30T04:10:38;14.90;99.90
13591;DHT22;6866;50.778;7.206;2023-08-30T04:13:04;14.80;99.90
13591;DHT22;6866;50.778;7.206;2023-08-30T04:15:34;14.80;99.90
13591;DHT22;6866;50.778;7.206;2023-08-30T04:18:00;14.90;99.90
13591;DHT22;6866;50.778;7.206;2023-08-30T04:20:26;14.90;99.90
13591;DHT22;6866;50.778;7.206;2023-08-30T04:22:51;14.90;99.90
13591;DHT22;6866;50.778;7.206;2023-08-30T04:25:18;14.90;99.90
13591;DHT22;6866;50.778;7.206;2023-08-30T04:27:44;14.80;99.90
13591;DHT22;6866;50.778;7.206;2023-08-30T04:30:10;14.80;99.90
13591;DHT22;6866;50.778;7.206;2023-08-30T04:32:36;14.80;99.90
13591;DHT22;6866;50.778;7.206;2023-08-30T04:35:01;14.70;99.90
13591;DHT22;6866;50.778;7.206;2023-08-30T04:37:30;14.50;99.90
13591;DHT22;6866;50.778;7.206;2023-08-30T04:39:57;14.50;99.90
13591;DHT22;6866;50.778;7.206;2023-08-30T04:42:22;14.40;99.90
13591;DHT22;6866;50.778;7.206;2023-08-30T04:44:48;14.40;99.90
13591;DHT22;6866;50.778;7.206;2023-08-30T04:47:13;14.40;99.90
13591;DHT22;6866;50.778;7.206;2023-08-30T04:49:39;14.40;99.90
13591;DHT22;6866;50.778;7.206;2023-08-30T04:52:05;14.40;99.90
13591;DHT22;6866;50.778;7.206;2023-08-30T04:54:31;14.40;99.90
13591;DHT22;6866;50.778;7.206;2023-08-30T04:56:56;14.20;99.90
13591;DHT22;6866;50.778;7.206;2023-08-30T04:59:22;14.30;99.90
13591;DHT22;6866;50.778;7.206;2023-08-30T05:01:47;14.30;99.90
13591;DHT22;6866;50.778;7.206;2023-08-30T05:04:13;14.10;99.90
13591;DHT22;6866;50.778;7.206;2023-08-30T05:06:39;13.90;99.90
13591;DHT22;6866;50.778;7.206;2023-08-30T05:09:05;14.00;99.90
13591;DHT22;6866;50.778;7.206;2023-08-30T05:11:30;14.00;99.90
13591;DHT22;6866;50.778;7.206;2023-08-30T05:13:56;14.10;99.90
13591;DHT22;6866;50.778;7.206;2023-08-30T05:16:22;14.30;99.90
13591;DHT22;6866;50.778;7.206;2023-08-30T05:18:48;14.30;99.90
13591;DHT22;6866;50.778;7.206;2023-08-30T05:21:14;14.40;99.90
13591;DHT22;6866;50.778;7.206;2023-08-30T05:23:40;14.40;99.90
13591;DHT22;6866;50.778;7.206;2023-08-30T05:26:11;14.50;99.90
13591;DHT22;6866;50.778;7.206;2023-08-30T05:28:38;14.50;99.90
13591;DHT22;6866;50.778;7.206;2023-08-30T05:31:04;14.60;99.90
13591;DHT22;6866;50.778;7.206;2023-08-30T05:33:30;14.50;99.90
13591;DHT22;6866;50.778;7.206;2023-08-30T05:35:55;14.70;99.90
13591;DHT22;6866;50.778;7.206;2023-08-30T05:38:21;14.60;99.90
13591;DHT22;6866;50.778;7.206;2023-08-30T05:40:47;14.60;99.90
13591;DHT22;6866;50.778;7.206;2023-08-30T05:43:12;14.60;99.90
13591;DHT22;6866;50.778;7.206;2023-08-30T05:45:38;14.50;99.90
13591;DHT22;6866;50.778;7.206;2023-08-30T05:48:04;14.60;99.90
13591;DHT22;6866;50.778;7.206;2023-08-30T05:50:30;14.70;99.90
13591;DHT22;6866;50.778;7.206;2023-08-30T05:52:55;14.80;99.90
13591;DHT22;6866;50.778;7.206;2023-08-30T05:55:21;14.80;99.90
13591;DHT22;6866;50.778;7.206;2023-08-30T05:57:47;14.80;99.90
13591;DHT22;6866;50.778;7.206;2023-08-30T06:00:12;14.80;99.90
13591;DHT22;6866;50.778;7.206;2023-08-30T06:02:39;14.80;99.90
13591;DHT22;6866;50.778;7.206;2023-08-30T06:05:05;15.00;99.90
13591;DHT22;6866;50.778;7.206;2023-08-30T06:07:31;15.10;99.90
13591;DHT22;6866;50.778;7.206;2023-08-30T06:09:57;15.20;99.90
13591;DHT22;6866;50.778;7.206;2023-08-30T06:12:22;15.20;99.90
13591;DHT22;6866;50.778;7.206;2023-08-30T06:14:49;15.30;99.90
13591;DHT22;6866;50.778;7.206;2023-08-30T06:17:19;15.50;99.90
13591;DHT22;6866;50.778;7.206;2023-08-30T06:19:45;15.70;99.90
13591;DHT22;6866;50.778;7.206;2023-08-30T06:22:11;16.20;99.90
13591;DHT22;6866;50.778;7.206;2023-08-30T06:24:36;17.40;99.90
13591;DHT22;6866;50.778;7.206;2023-08-30T06:27:02;18.20;99.90
13591;DHT22;6866;50.778;7.206;2023-08-30T06:29:27;18.90;99.90
13591;DHT22;6866;50.778;7.206;2023-08-30T06:31:53;19.40;99.90
13591;DHT22;6866;50.778;7.206;2023-08-30T06:34:18;19.90;98.10
13591;DHT22;6866;50.778;7.206;2023-08-30T06:36:44;20.20;97.00
13591;DHT22;6866;50.778;7.206;2023-08-30T06:39:10;20.60;94.90
13591;DHT22;6866;50.778;7.206;2023-08-30T06:41:35;20.90;94.50
13591;DHT22;6866;50.778;7.206;2023-08-30T06:44:01;21.30;92.10
13591;DHT22;6866;50.778;7.206;2023-08-30T06:46:27;21.50;90.80
13591;DHT22;6866;50.778;7.206;2023-08-30T06:48:52;21.40;90.10
13591;DHT22;6866;50.778;7.206;2023-08-30T06:51:18;21.70;87.80
13591;DHT22;6866;50.778;7.206;2023-08-30T06:53:43;22.00;84.50
13591;DHT22;6866;50.778;7.206;2023-08-30T06:56:09;22.20;82.90
13591;DHT22;6866;50.778;7.206;2023-08-30T06:58:34;22.50;79.30
13591;DHT22;6866;50.778;7.206;2023-08-30T07:01:00;22.70;77.90
13591;DHT22;6866;50.778;7.206;2023-08-30T07:03:25;23.20;76.60
13591;DHT22;6866;50.778;7.206;2023-08-30T07:05:51;23.10;75.90
13591;DHT22;6866;50.778;7.206;2023-08-30T07:08:17;24.20;72.20
13591;DHT22;6866;50.778;7.206;2023-08-30T07:10:43;25.10;67.10
13591;DHT22;6866;50.778;7.206;2023-08-30T07:13:09;25.20;66.00
13591;DHT22;6866;50.778;7.206;2023-08-30T07:15:38;24.90;67.10
13591;DHT22;6866;50.778;7.206;2023-08-30T07:18:05;24.80;67.20
13591;DHT22;6866;50.778;7.206;2023-08-30T07:20:31;24.80;66.00
13591;DHT22;6866;50.778;7.206;2023-08-30T07:22:56;25.00;65.50
13591;DHT22;6866;50.778;7.206;2023-08-30T07:25:22;25.20;66.30
13591;DHT22;6866;50.778;7.206;2023-08-30T07:27:47;25.60;63.60
13591;DHT22;6866;50.778;7.206;2023-08-30T07:30:13;25.50;63.40
13591;DHT22;6866;50.778;7.206;2023-08-30T07:32:39;27.20;60.70
13591;DHT22;6866;50.778;7.206;2023-08-30T07:35:04;27.40;59.90
13591;DHT22;6866;50.778;7.206;2023-08-30T07:37:31;27.40;57.40
13591;DHT22;6866;50.778;7.206;2023-08-30T07:39:56;27.50;57.90
13591;DHT22;6866;50.778;7.206;2023-08-30T07:42:22;28.00;57.20
13591;DHT22;6866;50.778;7.206;2023-08-30T07:44:47;27.30;57.20
13591;DHT22;6866;50.778;7.206;2023-08-30T07:47:13;27.30;57.70
13591;DHT22;6866;50.778;7.206;2023-08-30T07:49:38;27.00;52.00
13591;DHT22;6866;50.778;7.206;2023-08-30T07:52:04;27.50;50.90
13591;DHT22;6866;50.778;7.206;2023-08-30T07:54:30;26.10;50.20
13591;DHT22;6866;50.778;7.206;2023-08-30T07:56:56;26.60;50.80
13591;DHT22;6866;50.778;7.206;2023-08-30T07:59:21;27.30;49.60
13591;DHT22;6866;50.778;7.206;2023-08-30T08:01:47;26.80;48.80
13591;DHT22;6866;50.778;7.206;2023-08-30T08:04:12;27.10;48.50
13591;DHT22;6866;50.778;7.206;2023-08-30T08:06:38;26.20;48.20
13591;DHT22;6866;50.778;7.206;2023-08-30T08:09:04;25.10;51.10
13591;DHT22;6866;50.778;7.206;2023-08-30T08:11:29;24.30;50.90
13591;DHT22;6866;50.778;7.206;2023-08-30T08:13:55;23.70;53.70
13591;DHT22;6866;50.778;7.206;2023-08-30T08:16:21;23.90;54.40
13591;DHT22;6866;50.778;7.206;2023-08-30T08:18:46;24.90;53.30
13591;DHT22;6866;50.778;7.206;2023-08-30T08:21:13;25.80;51.00
13591;DHT22;6866;50.778;7.206;2023-08-30T08:23:38;24.70;53.30
13591;DHT22;6866;50.778;7.206;2023-08-30T08:26:04;24.50;53.00
13591;DHT22;6866;50.778;7.206;2023-08-30T08:28:29;24.00;54.80
13591;DHT22;6866;50.778;7.206;2023-08-30T08:30:55;23.70;56.40
13591;DHT22;6866;50.778;7.206;2023-08-30T08:33:21;24.80;54.50
13591;DHT22;6866;50.778;7.206;2023-08-30T08:35:49;25.40;53.40
13591;DHT22;6866;50.778;7.206;2023-08-30T08:38:14;26.40;52.60
13591;DHT22;6866;50.778;7.206;2023-08-30T08:40:40;25.70;51.10
13591;DHT22;6866;50.778;7.206;2023-08-30T08:43:06;26.60;50.30
13591;DHT22;6866;50.778;7.206;2023-08-30T08:45:35;26.90;49.30
13591;DHT22;6866;50.778;7.206;2023-08-30T08:48:04;26.90;49.20
13591;DHT22;6866;50.778;7.206;2023-08-30T08:50:34;26.10;49.20
13591;DHT22;6866;50.778;7.206;2023-08-30T08:53:01;26.30;49.20
13591;DHT22;6866;50.778;7.206;2023-08-30T08:55:28;25.70;49.50
13591;DHT22;6866;50.778;7.206;2023-08-30T08:57:56;25.60;50.60
13591;DHT22;6866;50.778;7.206;2023-08-30T09:00:22;26.10;50.80
13591;DHT22;6866;50.778;7.206;2023-08-30T09:02:48;26.50;49.20
13591;DHT22;6866;50.778;7.206;2023-08-30T09:05:18;26.50;49.30
13591;DHT22;6866;50.778;7.206;2023-08-30T09:07:45;26.00;49.60
13591;DHT22;6866;50.778;7.206;2023-08-30T09:10:11;25.60;50.80
13591;DHT22;6866;50.778;7.206;2023-08-30T09:12:36;25.60;48.80
13591;DHT22;6866;50.778;7.206;2023-08-30T09:15:02;26.30;49.90
13591;DHT22;6866;50.778;7.206;2023-08-30T09:17:39;26.20;47.10
13591;DHT22;6866;50.778;7.206;2023-08-30T09:20:12;25.60;47.70
13591;DHT22;6866;50.778;7.206;2023-08-30T09:22:40;25.80;49.20
13591;DHT22;6866;50.778;7.206;2023-08-30T09:25:07;26.60;47.60
13591;DHT22;6866;50.778;7.206;2023-08-30T09:27:33;26.70;48.20
13591;DHT22;6866;50.778;7.206;2023-08-30T09:29:59;26.70;48.10
13591;DHT22;6866;50.778;7.206;2023-08-30T09:32:25;26.80;47.10
13591;DHT22;6866;50.778;7.206;2023-08-30T09:34:51;27.00;47.90
13591;DHT22;6866;50.778;7.206;2023-08-30T09:37:21;26.50;47.10
13591;DHT22;6866;50.778;7.206;2023-08-30T09:39:50;26.40;47.60
13591;DHT22;6866;50.778;7.206;2023-08-30T09:42:17;25.90;48.00
13591;DHT22;6866;50.778;7.206;2023-08-30T09:44:43;25.50;49.10
13591;DHT22;6866;50.778;7.206;2023-08-30T09:47:09;25.10;49.10
13591;DHT22;6866;50.778;7.206;2023-08-30T09:49:44;24.60;49.80
13591;DHT22;6866;50.778;7.206;2023-08-30T09:52:15;25.00;49.70
13591;DHT22;6866;50.778;7.206;2023-08-30T09:54:41;24.50;50.50
13591;DHT22;6866;50.778;7.206;2023-08-30T09:57:09;23.60;51.60
13591;DHT22;6866;50.778;7.206;2023-08-30T09:59:36;24.30;54.20
13591;DHT22;6866;50.778;7.206;2023-08-30T10:02:03;23.90;55.90
13591;DHT22;6866;50.778;7.206;2023-08-30T10:04:31;24.10;57.30
13591;DHT22;6866;50.778;7.206;2023-08-30T10:06:57;24.10;57.30
13591;DHT22;6866;50.778;7.206;2023-08-30T10:09:24;24.20;57.30
13591;DHT22;6866;50.778;7.206;2023-08-30T10:11:50;24.00;58.50
13591;DHT22;6866;50.778;7.206;2023-08-30T10:14:17;24.20;59.00
13591;DHT22;6866;50.778;7.206;2023-08-30T10:16:46;23.80;59.60
13591;DHT22;6866;50.778;7.206;2023-08-30T10:21:44;23.20;58.00
13591;DHT22;6866;50.778;7.206;2023-08-30T10:24:19;23.30;64.70
13591;DHT22;6866;50.778;7.206;2023-08-30T10:26:46;23.20;66.80
13591;DHT22;6866;50.778;7.206;2023-08-30T10:29:13;23.20;60.80
13591;DHT22;6866;50.778;7.206;2023-08-30T10:31:40;22.90;63.80
13591;DHT22;6866;50.778;7.206;2023-08-30T10:34:16;22.90;67.10
13591;DHT22;6866;50.778;7.206;2023-08-30T10:36:43;23.10;63.80
13591;DHT22;6866;50.778;7.206;2023-08-30T10:39:12;22.80;64.40
13591;DHT22;6866;50.778;7.206;2023-08-30T10:41:54;22.90;64.50
13591;DHT22;6866;50.778;7.206;2023-08-30T10:44:22;22.50;64.30
13591;DHT22;6866;50.778;7.206;2023-08-30T10:46:52;22.30;67.70
13591;DHT22;6866;50.778;7.206;2023-08-30T10:49:19;22.20;67.50
13591;DHT22;6866;50.778;7.206;2023-08-30T10:51:44;22.40;69.40
13591;DHT22;6866;50.778;7.206;2023-08-30T10:54:14;22.00;70.90
13591;DHT22;6866;50.778;7.206;2023-08-30T10:56:57;21.80;74.40
13591;DHT22;6866;50.778;7.206;2023-08-30T10:59:27;22.20;73.50
13591;DHT22;6866;50.778;7.206;2023-08-30T11:01:53;22.40;73.90
13591;DHT22;6866;50.778;7.206;2023-08-30T11:04:20;22.50;70.70
13591;DHT22;6866;50.778;7.206;2023-08-30T11:06:50;22.40;66.60
13591;DHT22;6866;50.778;7.206;2023-08-30T11:09:17;22.00;68.50
13591;DHT22;6866;50.778;7.206;2023-08-30T11:11:44;22.30;66.80
13591;DHT22;6866;50.778;7.206;2023-08-30T11:14:11;22.10;65.40
13591;DHT22;6866;50.778;7.206;2023-08-30T11:16:38;22.20;64.80
13591;DHT22;6866;50.778;7.206;2023-08-30T11:19:04;22.00;65.80
13591;DHT22;6866;50.778;7.206;2023-08-30T11:21:31;22.20;66.30
13591;DHT22;6866;50.778;7.206;2023-08-30T11:23:57;23.00;64.90
13591;DHT22;6866;50.778;7.206;2023-08-30T11:26:23;23.00;65.60
13591;DHT22;6866;50.778;7.206;2023-08-30T11:28:49;23.10;63.50
13591;DHT22;6866;50.778;7.206;2023-08-30T11:31:24;23.10;63.50
13591;DHT22;6866;50.778;7.206;2023-08-30T11:33:57;22.50;63.40
13591;DHT22;6866;50.778;7.206;2023-08-30T11:36:28;23.00;65.10
13591;DHT22;6866;50.778;7.206;2023-08-30T11:38:54;23.10;61.20
13591;DHT22;6866;50.778;7.206;2023-08-30T11:41:23;22.90;61.40
13591;DHT22;6866;50.778;7.206;2023-08-30T11:43:53;22.20;67.40
13591;DHT22;6866;50.778;7.206;2023-08-30T11:46:19;22.10;70.60
13591;DHT22;6866;50.778;7.206;2023-08-30T11:48:50;21.80;68.90
13591;DHT22;6866;50.778;7.206;2023-08-30T11:51:17;21.80;69.10
13591;DHT22;6866;50.778;7.206;2023-08-30T11:53:44;21.30;71.70
13591;DHT22;6866;50.778;7.206;2023-08-30T11:56:10;20.80;73.40
13591;DHT22;6866;50.778;7.206;2023-08-30T11:58:37;20.80;78.80
13591;DHT22;6866;50.778;7.206;2023-08-30T12:01:04;20.50;87.40
13591;DHT22;6866;50.778;7.206;2023-08-30T12:03:30;20.20;94.00
13591;DHT22;6866;50.778;7.206;2023-08-30T12:05:57;20.10;99.20
13591;DHT22;6866;50.778;7.206;2023-08-30T12:08:25;20.10;99.90
13591;DHT22;6866;50.778;7.206;2023-08-30T12:10:52;20.30;99.90
13591;DHT22;6866;50.778;7.206;2023-08-30T12:13:25;20.20;99.90
13591;DHT22;6866;50.778;7.206;2023-08-30T12:15:58;20.20;99.90
13591;DHT22;6866;50.778;7.206;2023-08-30T12:18:28;20.10;99.90
13591;DHT22;6866;50.778;7.206;2023-08-30T12:20:54;19.60;99.90
13591;DHT22;6866;50.778;7.206;2023-08-30T12:23:21;19.70;99.90
13591;DHT22;6866;50.778;7.206;2023-08-30T12:26:09;20.20;99.90
13591;DHT22;6866;50.778;7.206;2023-08-30T12:28:39;19.50;99.90
13591;DHT22;6866;50.778;7.206;2023-08-30T12:31:06;19.40;99.90
13591;DHT22;6866;50.778;7.206;2023-08-30T12:33:34;19.60;99.90
13591;DHT22;6866;50.778;7.206;2023-08-30T12:36:00;19.40;99.90
13591;DHT22;6866;50.778;7.206;2023-08-30T12:38:26;19.70;99.90
13591;DHT22;6866;50.778;7.206;2023-08-30T12:40:53;19.60;99.90
13591;DHT22;6866;50.778;7.206;2023-08-30T12:43:20;19.80;99.90
13591;DHT22;6866;50.778;7.206;2023-08-30T12:45:46;19.60;99.90
13591;DHT22;6866;50.778;7.206;2023-08-30T12:48:12;19.70;99.90
13591;DHT22;6866;50.778;7.206;2023-08-30T12:50:41;19.40;99.90
13591;DHT22;6866;50.778;7.206;2023-08-30T12:53:07;19.40;99.90
13591;DHT22;6866;50.778;7.206;2023-08-30T12:55:33;19.40;99.90
13591;DHT22;6866;50.778;7.206;2023-08-30T12:58:03;19.50;99.90
13591;DHT22;6866;50.778;7.206;2023-08-30T13:00:28;19.20;99.90
13591;DHT22;6866;50.778;7.206;2023-08-30T13:02:54;19.50;99.90
13591;DHT22;6866;50.778;7.206;2023-08-30T13:05:20;19.70;99.90
13591;DHT22;6866;50.778;7.206;2023-08-30T13:07:47;19.60;99.90
13591;DHT22;6866;50.778;7.206;2023-08-30T13:10:12;19.60;99.90
13591;DHT22;6866;50.778;7.206;2023-08-30T13:12:38;19.90;99.90
13591;DHT22;6866;50.778;7.206;2023-08-30T13:15:04;19.50;99.90
13591;DHT22;6866;50.778;7.206;2023-08-30T13:17:30;19.80;99.90
13591;DHT22;6866;50.778;7.206;2023-08-30T13:19:56;19.80;99.90
13591;DHT22;6866;50.778;7.206;2023-08-30T13:22:25;19.90;99.90
13591;DHT22;6866;50.778;7.206;2023-08-30T13:24:51;19.50;99.90
13591;DHT22;6866;50.778;7.206;2023-08-30T13:27:17;19.50;99.90
13591;DHT22;6866;50.778;7.206;2023-08-30T13:29:43;19.60;99.90
13591;DHT22;6866;50.778;7.206;2023-08-30T13:32:08;19.50;99.90
13591;DHT22;6866;50.778;7.206;2023-08-30T13:34:34;19.80;99.90
13591;DHT22;6866;50.778;7.206;2023-08-30T13:36:59;19.70;99.90
13591;DHT22;6866;50.778;7.206;2023-08-30T13:39:25;19.50;99.90
13591;DHT22;6866;50.778;7.206;2023-08-30T13:41:50;19.70;99.90
13591;DHT22;6866;50.778;7.206;2023-08-30T13:44:16;19.90;99.90
13591;DHT22;6866;50.778;7.206;2023-08-30T13:46:43;19.90;99.90
13591;DHT22;6866;50.778;7.206;2023-08-30T13:49:09;19.90;99.90
13591;DHT22;6866;50.778;7.206;2023-08-30T13:51:35;19.70;99.90
13591;DHT22;6866;50.778;7.206;2023-08-30T13:54:01;19.60;99.90
13591;DHT22;6866;50.778;7.206;2023-08-30T13:56:27;19.80;99.90
13591;DHT22;6866;50.778;7.206;2023-08-30T13:58:52;19.50;99.90
13591;DHT22;6866;50.778;7.206;2023-08-30T14:01:18;19.60;99.90
13591;DHT22;6866;50.778;7.206;2023-08-30T14:03:44;19.50;99.90
13591;DHT22;6866;50.778;7.206;2023-08-30T14:06:09;19.60;99.90
13591;DHT22;6866;50.778;7.206;2023-08-30T14:08:35;19.00;99.90
13591;DHT22;6866;50.778;7.206;2023-08-30T14:11:01;19.10;99.90
13591;DHT22;6866;50.778;7.206;2023-08-30T14:13:26;19.00;99.90
13591;DHT22;6866;50.778;7.206;2023-08-30T14:15:58;19.10;99.90
13591;DHT22;6866;50.778;7.206;2023-08-30T14:18:23;19.10;99.90
13591;DHT22;6866;50.778;7.206;2023-08-30T14:20:49;19.40;99.90
13591;DHT22;6866;50.778;7.206;2023-08-30T14:23:14;19.30;99.90
13591;DHT22;6866;50.778;7.206;2023-08-30T14:25:40;19.40;99.90
13591;DHT22;6866;50.778;7.206;2023-08-30T14:28:05;19.60;99.90
13591;DHT22;6866;50.778;7.206;2023-08-30T14:30:31;19.40;99.90
13591;DHT22;6866;50.778;7.206;2023-08-30T14:32:56;19.40;99.90
13591;DHT22;6866;50.778;7.206;2023-08-30T14:35:22;19.40;99.90
13591;DHT22;6866;50.778;7.206;2023-08-30T14:37:50;19.50;99.90
13591;DHT22;6866;50.778;7.206;2023-08-30T14:40:16;19.40;99.90
13591;DHT22;6866;50.778;7.206;2023-08-30T14:42:42;19.50;99.90
13591;DHT22;6866;50.778;7.206;2023-08-30T14:45:08;19.20;99.90
13591;DHT22;6866;50.778;7.206;2023-08-30T14:47:34;18.90;99.90
13591;DHT22;6866;50.778;7.206;2023-08-30T14:50:00;18.60;99.90
13591;DHT22;6866;50.778;7.206;2023-08-30T14:52:28;18.20;99.90
13591;DHT22;6866;50.778;7.206;2023-08-30T14:54:54;18.40;99.90
13591;DHT22;6866;50.778;7.206;2023-08-30T14:57:19;18.00;99.90
13591;DHT22;6866;50.778;7.206;2023-08-30T14:59:46;18.10;99.90
13591;DHT22;6866;50.778;7.206;2023-08-30T15:02:12;17.70;99.90
13591;DHT22;6866;50.778;7.206;2023-08-30T15:04:37;17.80;99.90
13591;DHT22;6866;50.778;7.206;2023-08-30T15:07:03;17.90;99.90
13591;DHT22;6866;50.778;7.206;2023-08-30T15:09:30;17.90;99.90
13591;DHT22;6866;50.778;7.206;2023-08-30T15:11:55;17.90;99.90
13591;DHT22;6866;50.778;7.206;2023-08-30T15:14:23;17.80;99.90
13591;DHT22;6866;50.778;7.206;2023-08-30T15:16:49;17.90;99.90
13591;DHT22;6866;50.778;7.206;2023-08-30T15:19:15;18.00;99.90
13591;DHT22;6866;50.778;7.206;2023-08-30T15:21:41;18.10;99.90
13591;DHT22;6866;50.778;7.206;2023-08-30T15:24:10;17.90;99.90
13591;DHT22;6866;50.778;7.206;2023-08-30T15:26:38;17.90;99.90
13591;DHT22;6866;50.778;7.206;2023-08-30T15:29:03;17.90;99.90
13591;DHT22;6866;50.778;7.206;2023-08-30T15:31:29;18.60;99.90
13591;DHT22;6866;50.778;7.206;2023-08-30T15:33:54;18.10;99.90
13591;DHT22;6866;50.778;7.206;2023-08-30T15:36:20;17.90;99.90
13591;DHT22;6866;50.778;7.206;2023-08-30T15:38:45;18.00;99.90
13591;DHT22;6866;50.778;7.206;2023-08-30T15:41:12;18.00;99.90
13591;DHT22;6866;50.778;7.206;2023-08-30T15:43:38;18.30;99.90
13591;DHT22;6866;50.778;7.206;2023-08-30T15:46:08;18.50;99.90
13591;DHT22;6866;50.778;7.206;2023-08-30T15:48:35;18.80;99.90
13591;DHT22;6866;50.778;7.206;2023-08-30T15:51:01;18.70;99.90